sensor_id;sensor_type;location;lat;lon;timestamp;P1;durP1;ratioP1;P2;durP2;ratioP2
75971;SDS011;64651;47.540;19.088;2024-02-16T00:04:54;39.50;;;19.00;;
75971;SDS011;64651;47.540;19.088;2024-02-16T00:09:57;39.72;;;18.27;;
75971;SDS011;64651;47.540;19.088;2024-02-16T00:14:59;40.40;;;19.37;;
75971;SDS011;64651;47.540;19.088;2024-02-16T00:20:02;38.00;;;19.23;;
75971;SDS011;64651;47.540;19.088;2024-02-16T00:25:05;36.47;;;19.53;;
75971;SDS011;64651;47.540;19.088;2024-02-16T00:30:07;38.03;;;19.15;;
75971;SDS011;64651;47.540;19.088;2024-02-16T00:35:12;38.42;;;18.70;;
75971;SDS011;64651;47.540;19.088;2024-02-16T00:40:14;37.87;;;18.27;;
75971;SDS011;64651;47.540;19.088;2024-02-16T00:45:16;34.55;;;17.60;;
75971;SDS011;64651;47.540;19.088;2024-02-16T00:50:19;35.60;;;18.07;;
75971;SDS011;64651;47.540;19.088;2024-02-16T00:55:21;38.67;;;18.27;;
75971;SDS011;64651;47.540;19.088;2024-02-16T01:00:23;34.15;;;17.90;;
75971;SDS011;64651;47.540;19.088;2024-02-16T01:05:26;36.07;;;18.17;;
75971;SDS011;64651;47.540;19.088;2024-02-16T01:10:28;35.28;;;18.02;;
75971;SDS011;64651;47.540;19.088;2024-02-16T01:15:30;34.20;;;17.17;;
75971;SDS011;64651;47.540;19.088;2024-02-16T01:20:33;40.47;;;19.20;;
75971;SDS011;64651;47.540;19.088;2024-02-16T01:25:35;39.90;;;19.48;;
75971;SDS011;64651;47.540;19.088;2024-02-16T01:30:37;37.07;;;18.97;;
75971;SDS011;64651;47.540;19.088;2024-02-16T01:35:40;37.78;;;19.85;;
75971;SDS011;64651;47.540;19.088;2024-02-16T01:40:43;38.40;;;18.37;;
75971;SDS011;64651;47.540;19.088;2024-02-16T01:45:45;34.83;;;17.40;;
75971;SDS011;64651;47.540;19.088;2024-02-16T01:50:47;37.45;;;18.85;;
75971;SDS011;64651;47.540;19.088;2024-02-16T01:55:51;37.97;;;17.47;;
75971;SDS011;64651;47.540;19.088;2024-02-16T02:00:53;41.85;;;18.80;;
75971;SDS011;64651;47.540;19.088;2024-02-16T02:05:56;36.87;;;16.93;;
75971;SDS011;64651;47.540;19.088;2024-02-16T02:10:59;34.90;;;17.35;;
75971;SDS011;64651;47.540;19.088;2024-02-16T02:16:01;40.97;;;18.55;;
75971;SDS011;64651;47.540;19.088;2024-02-16T02:21:05;37.80;;;17.60;;
75971;SDS011;64651;47.540;19.088;2024-02-16T02:26:07;36.47;;;17.85;;
75971;SDS011;64651;47.540;19.088;2024-02-16T02:31:09;39.57;;;18.70;;
75971;SDS011;64651;47.540;19.088;2024-02-16T02:36:11;39.08;;;17.55;;
75971;SDS011;64651;47.540;19.088;2024-02-16T02:41:14;39.88;;;18.67;;
75971;SDS011;64651;47.540;19.088;2024-02-16T02:46:19;36.50;;;16.60;;
75971;SDS011;64651;47.540;19.088;2024-02-16T02:51:21;37.42;;;16.92;;
75971;SDS011;64651;47.540;19.088;2024-02-16T02:56:23;38.50;;;17.77;;
75971;SDS011;64651;47.540;19.088;2024-02-16T03:01:26;39.45;;;17.37;;
75971;SDS011;64651;47.540;19.088;2024-02-16T03:06:28;36.85;;;17.33;;
75971;SDS011;64651;47.540;19.088;2024-02-16T03:11:30;38.57;;;17.13;;
75971;SDS011;64651;47.540;19.088;2024-02-16T03:16:32;36.95;;;16.73;;
75971;SDS011;64651;47.540;19.088;2024-02-16T03:21:35;37.37;;;16.73;;
75971;SDS011;64651;47.540;19.088;2024-02-16T03:26:37;40.72;;;18.05;;
75971;SDS011;64651;47.540;19.088;2024-02-16T03:31:41;39.97;;;17.85;;
75971;SDS011;64651;47.540;19.088;2024-02-16T03:36:43;39.17;;;18.17;;
75971;SDS011;64651;47.540;19.088;2024-02-16T03:41:46;41.83;;;19.37;;
75971;SDS011;64651;47.540;19.088;2024-02-16T03:46:50;41.90;;;18.87;;
75971;SDS011;64651;47.540;19.088;2024-02-16T03:51:56;39.15;;;17.35;;
75971;SDS011;64651;47.540;19.088;2024-02-16T03:56:58;44.58;;;20.70;;
75971;SDS011;64651;47.540;19.088;2024-02-16T04:02:01;44.73;;;21.20;;
75971;SDS011;64651;47.540;19.088;2024-02-16T04:07:03;46.95;;;21.25;;
75971;SDS011;64651;47.540;19.088;2024-02-16T04:12:05;46.10;;;20.17;;
75971;SDS011;64651;47.540;19.088;2024-02-16T04:17:08;42.58;;;19.12;;
75971;SDS011;64651;47.540;19.088;2024-02-16T04:22:11;38.47;;;18.70;;
75971;SDS011;64651;47.540;19.088;2024-02-16T04:27:21;47.50;;;21.40;;
75971;SDS011;64651;47.540;19.088;2024-02-16T04:50:07;49.42;;;22.45;;
75971;SDS011;64651;47.540;19.088;2024-02-16T04:55:12;50.10;;;22.57;;
75971;SDS011;64651;47.540;19.088;2024-02-16T05:00:15;55.10;;;24.42;;
75971;SDS011;64651;47.540;19.088;2024-02-16T05:05:17;49.90;;;22.63;;
75971;SDS011;64651;47.540;19.088;2024-02-16T05:10:20;47.72;;;23.52;;
75971;SDS011;64651;47.540;19.088;2024-02-16T05:15:23;49.15;;;22.75;;
75971;SDS011;64651;47.540;19.088;2024-02-16T05:20:26;44.70;;;22.07;;
75971;SDS011;64651;47.540;19.088;2024-02-16T05:25:28;50.08;;;23.23;;
75971;SDS011;64651;47.540;19.088;2024-02-16T05:30:30;48.33;;;21.90;;
75971;SDS011;64651;47.540;19.088;2024-02-16T05:35:33;46.25;;;22.25;;
75971;SDS011;64651;47.540;19.088;2024-02-16T05:40:36;44.97;;;21.75;;
75971;SDS011;64651;47.540;19.088;2024-02-16T05:45:56;49.97;;;24.03;;
75971;SDS011;64651;47.540;19.088;2024-02-16T05:51:00;50.83;;;22.83;;
75971;SDS011;64651;47.540;19.088;2024-02-16T05:56:04;54.00;;;25.63;;
75971;SDS011;64651;47.540;19.088;2024-02-16T06:01:07;48.38;;;22.15;;
75971;SDS011;64651;47.540;19.088;2024-02-16T06:06:12;47.95;;;22.42;;
75971;SDS011;64651;47.540;19.088;2024-02-16T06:11:14;43.63;;;20.43;;
75971;SDS011;64651;47.540;19.088;2024-02-16T06:16:17;49.65;;;22.83;;
75971;SDS011;64651;47.540;19.088;2024-02-16T06:21:19;46.13;;;21.43;;
75971;SDS011;64651;47.540;19.088;2024-02-16T06:26:22;53.83;;;22.90;;
75971;SDS011;64651;47.540;19.088;2024-02-16T06:31:24;48.30;;;22.52;;
75971;SDS011;64651;47.540;19.088;2024-02-16T06:36:26;56.97;;;23.00;;
75971;SDS011;64651;47.540;19.088;2024-02-16T06:41:28;50.42;;;22.42;;
75971;SDS011;64651;47.540;19.088;2024-02-16T06:46:45;52.67;;;24.07;;
75971;SDS011;64651;47.540;19.088;2024-02-16T06:51:49;51.67;;;23.60;;
75971;SDS011;64651;47.540;19.088;2024-02-16T06:56:53;56.63;;;23.73;;
75971;SDS011;64651;47.540;19.088;2024-02-16T07:01:57;50.83;;;23.03;;
75971;SDS011;64651;47.540;19.088;2024-02-16T07:06:59;53.67;;;23.08;;
75971;SDS011;64651;47.540;19.088;2024-02-16T07:12:07;53.83;;;24.00;;
75971;SDS011;64651;47.540;19.088;2024-02-16T07:17:15;51.78;;;23.00;;
75971;SDS011;64651;47.540;19.088;2024-02-16T07:22:17;49.30;;;22.20;;
75971;SDS011;64651;47.540;19.088;2024-02-16T07:27:19;47.17;;;21.10;;
75971;SDS011;64651;47.540;19.088;2024-02-16T07:32:21;48.97;;;22.50;;
75971;SDS011;64651;47.540;19.088;2024-02-16T07:37:26;46.53;;;21.33;;
75971;SDS011;64651;47.540;19.088;2024-02-16T07:42:29;50.40;;;21.10;;
75971;SDS011;64651;47.540;19.088;2024-02-16T07:47:31;45.97;;;20.77;;
75971;SDS011;64651;47.540;19.088;2024-02-16T07:52:34;42.10;;;18.80;;
75971;SDS011;64651;47.540;19.088;2024-02-16T07:57:37;40.38;;;19.00;;
75971;SDS011;64651;47.540;19.088;2024-02-16T08:02:40;41.47;;;19.63;;
75971;SDS011;64651;47.540;19.088;2024-02-16T08:07:46;40.63;;;18.37;;
75971;SDS011;64651;47.540;19.088;2024-02-16T08:12:49;41.75;;;18.20;;
75971;SDS011;64651;47.540;19.088;2024-02-16T08:17:52;40.10;;;16.93;;
75971;SDS011;64651;47.540;19.088;2024-02-16T08:22:56;35.88;;;16.58;;
75971;SDS011;64651;47.540;19.088;2024-02-16T08:28:00;34.73;;;15.83;;
75971;SDS011;64651;47.540;19.088;2024-02-16T08:33:02;31.42;;;15.02;;
75971;SDS011;64651;47.540;19.088;2024-02-16T08:38:05;39.22;;;17.75;;
75971;SDS011;64651;47.540;19.088;2024-02-16T08:43:13;30.23;;;14.73;;
75971;SDS011;64651;47.540;19.088;2024-02-16T08:48:15;31.83;;;14.80;;
75971;SDS011;64651;47.540;19.088;2024-02-16T08:53:19;27.40;;;13.37;;
75971;SDS011;64651;47.540;19.088;2024-02-16T08:58:24;26.35;;;11.98;;
75971;SDS011;64651;47.540;19.088;2024-02-16T09:03:28;26.05;;;12.27;;
75971;SDS011;64651;47.540;19.088;2024-02-16T09:08:30;29.77;;;12.03;;
75971;SDS011;64651;47.540;19.088;2024-02-16T09:13:35;29.27;;;12.82;;
75971;SDS011;64651;47.540;19.088;2024-02-16T09:18:43;24.13;;;11.97;;
75971;SDS011;64651;47.540;19.088;2024-02-16T09:23:45;18.02;;;8.50;;
75971;SDS011;64651;47.540;19.088;2024-02-16T09:28:49;18.58;;;8.80;;
75971;SDS011;64651;47.540;19.088;2024-02-16T09:33:52;19.80;;;9.17;;
75971;SDS011;64651;47.540;19.088;2024-02-16T09:50:35;17.50;;;9.52;;
75971;SDS011;64651;47.540;19.088;2024-02-16T10:01:01;19.77;;;10.50;;
75971;SDS011;64651;47.540;19.088;2024-02-16T10:12:17;20.93;;;11.87;;
75971;SDS011;64651;47.540;19.088;2024-02-16T10:17:23;20.05;;;11.75;;
75971;SDS011;64651;47.540;19.088;2024-02-16T10:22:49;17.05;;;10.95;;
75971;SDS011;64651;47.540;19.088;2024-02-16T10:28:13;15.57;;;9.77;;
75971;SDS011;64651;47.540;19.088;2024-02-16T10:33:16;17.30;;;10.10;;
75971;SDS011;64651;47.540;19.088;2024-02-16T10:38:23;18.13;;;10.40;;
75971;SDS011;64651;47.540;19.088;2024-02-16T10:43:28;16.40;;;9.77;;
75971;SDS011;64651;47.540;19.088;2024-02-16T10:54:12;14.10;;;9.50;;
75971;SDS011;64651;47.540;19.088;2024-02-16T10:59:18;14.93;;;8.80;;
75971;SDS011;64651;47.540;19.088;2024-02-16T11:04:38;11.93;;;6.53;;
75971;SDS011;64651;47.540;19.088;2024-02-16T11:09:45;14.35;;;8.80;;
75971;SDS011;64651;47.540;19.088;2024-02-16T11:14:51;14.90;;;9.70;;
75971;SDS011;64651;47.540;19.088;2024-02-16T11:19:57;17.40;;;10.30;;
75971;SDS011;64651;47.540;19.088;2024-02-16T11:25:06;16.98;;;11.05;;
75971;SDS011;64651;47.540;19.088;2024-02-16T11:30:13;16.60;;;10.93;;
75971;SDS011;64651;47.540;19.088;2024-02-16T11:35:16;15.63;;;10.35;;
75971;SDS011;64651;47.540;19.088;2024-02-16T11:40:19;15.52;;;10.65;;
75971;SDS011;64651;47.540;19.088;2024-02-16T11:45:21;16.87;;;10.33;;
75971;SDS011;64651;47.540;19.088;2024-02-16T11:50:23;17.20;;;10.18;;
75971;SDS011;64651;47.540;19.088;2024-02-16T11:55:31;17.03;;;11.00;;
75971;SDS011;64651;47.540;19.088;2024-02-16T12:00:37;17.67;;;12.32;;
75971;SDS011;64651;47.540;19.088;2024-02-16T12:05:49;16.42;;;11.20;;
75971;SDS011;64651;47.540;19.088;2024-02-16T12:10:58;17.63;;;11.37;;
75971;SDS011;64651;47.540;19.088;2024-02-16T12:16:02;17.83;;;11.73;;
75971;SDS011;64651;47.540;19.088;2024-02-16T12:21:06;17.73;;;11.20;;
75971;SDS011;64651;47.540;19.088;2024-02-16T12:26:16;19.77;;;13.98;;
75971;SDS011;64651;47.540;19.088;2024-02-16T12:31:23;19.48;;;12.55;;
75971;SDS011;64651;47.540;19.088;2024-02-16T12:36:27;17.43;;;11.43;;
75971;SDS011;64651;47.540;19.088;2024-02-16T12:41:34;15.85;;;10.75;;
75971;SDS011;64651;47.540;19.088;2024-02-16T12:46:40;17.20;;;10.37;;
75971;SDS011;64651;47.540;19.088;2024-02-16T12:51:46;15.05;;;9.27;;
75971;SDS011;64651;47.540;19.088;2024-02-16T12:56:48;14.48;;;10.07;;
75971;SDS011;64651;47.540;19.088;2024-02-16T13:01:51;14.50;;;9.27;;
75971;SDS011;64651;47.540;19.088;2024-02-16T13:06:54;14.27;;;9.40;;
75971;SDS011;64651;47.540;19.088;2024-02-16T13:11:56;14.53;;;9.40;;
75971;SDS011;64651;47.540;19.088;2024-02-16T13:16:59;15.40;;;8.88;;
75971;SDS011;64651;47.540;19.088;2024-02-16T13:22:01;12.77;;;8.00;;
75971;SDS011;64651;47.540;19.088;2024-02-16T13:27:04;12.37;;;7.90;;
75971;SDS011;64651;47.540;19.088;2024-02-16T13:32:07;14.75;;;8.52;;
75971;SDS011;64651;47.540;19.088;2024-02-16T13:37:13;14.33;;;8.03;;
75971;SDS011;64651;47.540;19.088;2024-02-16T13:42:16;12.68;;;8.80;;
75971;SDS011;64651;47.540;19.088;2024-02-16T13:47:24;14.48;;;9.02;;
75971;SDS011;64651;47.540;19.088;2024-02-16T13:52:26;11.93;;;8.03;;
75971;SDS011;64651;47.540;19.088;2024-02-16T13:57:50;13.10;;;8.85;;
75971;SDS011;64651;47.540;19.088;2024-02-16T14:02:52;13.53;;;8.40;;
75971;SDS011;64651;47.540;19.088;2024-02-16T14:08:15;14.50;;;9.20;;
75971;SDS011;64651;47.540;19.088;2024-02-16T14:13:22;13.07;;;8.75;;
75971;SDS011;64651;47.540;19.088;2024-02-16T14:18:27;13.70;;;8.63;;
75971;SDS011;64651;47.540;19.088;2024-02-16T14:23:37;12.70;;;8.73;;
75971;SDS011;64651;47.540;19.088;2024-02-16T14:28:44;12.73;;;8.43;;
75971;SDS011;64651;47.540;19.088;2024-02-16T14:33:48;13.30;;;8.52;;
75971;SDS011;64651;47.540;19.088;2024-02-16T14:38:51;13.90;;;8.88;;
75971;SDS011;64651;47.540;19.088;2024-02-16T14:43:56;12.00;;;7.80;;
75971;SDS011;64651;47.540;19.088;2024-02-16T14:49:02;14.10;;;8.95;;
75971;SDS011;64651;47.540;19.088;2024-02-16T14:54:05;12.63;;;8.53;;
75971;SDS011;64651;47.540;19.088;2024-02-16T14:59:10;14.18;;;8.65;;
75971;SDS011;64651;47.540;19.088;2024-02-16T15:04:13;16.33;;;8.70;;
75971;SDS011;64651;47.540;19.088;2024-02-16T15:09:18;14.43;;;8.80;;
75971;SDS011;64651;47.540;19.088;2024-02-16T15:14:20;14.15;;;8.25;;
75971;SDS011;64651;47.540;19.088;2024-02-16T15:19:22;15.57;;;8.63;;
75971;SDS011;64651;47.540;19.088;2024-02-16T15:24:25;16.75;;;9.77;;
75971;SDS011;64651;47.540;19.088;2024-02-16T15:29:29;16.50;;;8.85;;
75971;SDS011;64651;47.540;19.088;2024-02-16T15:34:32;16.67;;;9.50;;
75971;SDS011;64651;47.540;19.088;2024-02-16T15:39:36;16.65;;;9.52;;
75971;SDS011;64651;47.540;19.088;2024-02-16T15:44:42;15.93;;;8.93;;
75971;SDS011;64651;47.540;19.088;2024-02-16T15:49:45;18.12;;;9.68;;
75971;SDS011;64651;47.540;19.088;2024-02-16T15:54:47;17.55;;;9.05;;
75971;SDS011;64651;47.540;19.088;2024-02-16T15:59:52;18.07;;;9.07;;
75971;SDS011;64651;47.540;19.088;2024-02-16T16:04:54;21.05;;;9.82;;
75971;SDS011;64651;47.540;19.088;2024-02-16T16:09:57;19.53;;;9.23;;
75971;SDS011;64651;47.540;19.088;2024-02-16T16:14:59;20.92;;;10.57;;
75971;SDS011;64651;47.540;19.088;2024-02-16T16:20:01;18.77;;;9.25;;
75971;SDS011;64651;47.540;19.088;2024-02-16T16:25:05;18.50;;;9.27;;
75971;SDS011;64651;47.540;19.088;2024-02-16T16:30:08;17.87;;;9.43;;
75971;SDS011;64651;47.540;19.088;2024-02-16T16:35:10;20.17;;;9.27;;
75971;SDS011;64651;47.540;19.088;2024-02-16T16:40:13;19.67;;;9.13;;
75971;SDS011;64651;47.540;19.088;2024-02-16T16:45:16;21.08;;;9.68;;
75971;SDS011;64651;47.540;19.088;2024-02-16T16:50:18;19.50;;;9.30;;
75971;SDS011;64651;47.540;19.088;2024-02-16T16:55:26;22.90;;;10.50;;
75971;SDS011;64651;47.540;19.088;2024-02-16T17:00:29;22.87;;;10.17;;
75971;SDS011;64651;47.540;19.088;2024-02-16T17:05:31;23.17;;;10.93;;
75971;SDS011;64651;47.540;19.088;2024-02-16T17:10:33;22.48;;;11.30;;
75971;SDS011;64651;47.540;19.088;2024-02-16T17:15:35;26.10;;;11.80;;
75971;SDS011;64651;47.540;19.088;2024-02-16T17:20:38;25.08;;;12.40;;
75971;SDS011;64651;47.540;19.088;2024-02-16T17:25:42;26.77;;;13.27;;
75971;SDS011;64651;47.540;19.088;2024-02-16T17:30:44;28.15;;;12.90;;
75971;SDS011;64651;47.540;19.088;2024-02-16T17:35:48;29.75;;;13.18;;
75971;SDS011;64651;47.540;19.088;2024-02-16T17:40:50;27.40;;;13.43;;
75971;SDS011;64651;47.540;19.088;2024-02-16T17:45:53;32.03;;;14.00;;
75971;SDS011;64651;47.540;19.088;2024-02-16T17:50:55;27.93;;;13.37;;
75971;SDS011;64651;47.540;19.088;2024-02-16T17:55:57;31.02;;;14.50;;
75971;SDS011;64651;47.540;19.088;2024-02-16T18:00:59;31.90;;;14.38;;
75971;SDS011;64651;47.540;19.088;2024-02-16T18:06:02;31.73;;;14.80;;
75971;SDS011;64651;47.540;19.088;2024-02-16T18:11:05;32.90;;;15.15;;
75971;SDS011;64651;47.540;19.088;2024-02-16T18:16:07;38.10;;;14.73;;
75971;SDS011;64651;47.540;19.088;2024-02-16T18:21:10;33.22;;;15.65;;
75971;SDS011;64651;47.540;19.088;2024-02-16T18:26:14;34.47;;;15.85;;
75971;SDS011;64651;47.540;19.088;2024-02-16T18:31:17;36.87;;;16.77;;
75971;SDS011;64651;47.540;19.088;2024-02-16T18:36:19;31.90;;;15.18;;
75971;SDS011;64651;47.540;19.088;2024-02-16T18:41:21;34.30;;;15.63;;
75971;SDS011;64651;47.540;19.088;2024-02-16T18:46:25;30.98;;;15.75;;
75971;SDS011;64651;47.540;19.088;2024-02-16T18:51:27;33.45;;;15.30;;
75971;SDS011;64651;47.540;19.088;2024-02-16T18:56:29;34.43;;;15.67;;
75971;SDS011;64651;47.540;19.088;2024-02-16T19:01:31;33.55;;;15.77;;
75971;SDS011;64651;47.540;19.088;2024-02-16T19:06:37;34.47;;;16.83;;
75971;SDS011;64651;47.540;19.088;2024-02-16T19:11:39;35.80;;;16.48;;
75971;SDS011;64651;47.540;19.088;2024-02-16T19:16:41;35.42;;;17.00;;
75971;SDS011;64651;47.540;19.088;2024-02-16T19:21:44;33.87;;;16.47;;
75971;SDS011;64651;47.540;19.088;2024-02-16T19:26:46;34.90;;;17.02;;
75971;SDS011;64651;47.540;19.088;2024-02-16T19:31:49;34.53;;;16.37;;
75971;SDS011;64651;47.540;19.088;2024-02-16T19:36:51;37.40;;;16.67;;
75971;SDS011;64651;47.540;19.088;2024-02-16T19:41:53;38.40;;;16.27;;
75971;SDS011;64651;47.540;19.088;2024-02-16T19:46:56;35.10;;;15.87;;
75971;SDS011;64651;47.540;19.088;2024-02-16T19:51:58;35.53;;;16.75;;
75971;SDS011;64651;47.540;19.088;2024-02-16T19:57:01;35.07;;;16.73;;
75971;SDS011;64651;47.540;19.088;2024-02-16T20:02:03;38.40;;;17.17;;
75971;SDS011;64651;47.540;19.088;2024-02-16T20:07:13;34.35;;;16.65;;
75971;SDS011;64651;47.540;19.088;2024-02-16T20:12:15;36.23;;;17.03;;
75971;SDS011;64651;47.540;19.088;2024-02-16T20:17:18;32.90;;;16.40;;
75971;SDS011;64651;47.540;19.088;2024-02-16T20:22:20;39.30;;;18.57;;
75971;SDS011;64651;47.540;19.088;2024-02-16T20:27:25;37.58;;;16.58;;
75971;SDS011;64651;47.540;19.088;2024-02-16T20:32:28;38.58;;;17.60;;
75971;SDS011;64651;47.540;19.088;2024-02-16T20:37:33;35.73;;;17.50;;
75971;SDS011;64651;47.540;19.088;2024-02-16T20:42:35;37.15;;;17.85;;
75971;SDS011;64651;47.540;19.088;2024-02-16T20:47:38;43.23;;;18.63;;
75971;SDS011;64651;47.540;19.088;2024-02-16T20:52:43;38.85;;;17.15;;
75971;SDS011;64651;47.540;19.088;2024-02-16T20:57:45;34.88;;;16.62;;
75971;SDS011;64651;47.540;19.088;2024-02-16T21:02:48;34.17;;;15.93;;
75971;SDS011;64651;47.540;19.088;2024-02-16T21:07:51;37.58;;;17.27;;
75971;SDS011;64651;47.540;19.088;2024-02-16T21:12:54;38.83;;;17.07;;
75971;SDS011;64651;47.540;19.088;2024-02-16T21:17:57;41.72;;;18.48;;
75971;SDS011;64651;47.540;19.088;2024-02-16T21:23:02;39.42;;;18.35;;
75971;SDS011;64651;47.540;19.088;2024-02-16T21:28:05;40.20;;;18.47;;
75971;SDS011;64651;47.540;19.088;2024-02-16T21:33:10;36.47;;;17.60;;
75971;SDS011;64651;47.540;19.088;2024-02-16T21:38:14;39.73;;;19.60;;
75971;SDS011;64651;47.540;19.088;2024-02-16T21:43:19;38.55;;;17.83;;
75971;SDS011;64651;47.540;19.088;2024-02-16T21:48:21;42.13;;;18.90;;
75971;SDS011;64651;47.540;19.088;2024-02-16T21:53:36;42.03;;;18.60;;
75971;SDS011;64651;47.540;19.088;2024-02-16T21:58:39;41.72;;;19.90;;
75971;SDS011;64651;47.540;19.088;2024-02-16T22:03:46;37.53;;;18.63;;
75971;SDS011;64651;47.540;19.088;2024-02-16T22:08:54;40.28;;;19.73;;
75971;SDS011;64651;47.540;19.088;2024-02-16T22:13:56;40.35;;;20.12;;
75971;SDS011;64651;47.540;19.088;2024-02-16T22:18:58;40.37;;;18.80;;
75971;SDS011;64651;47.540;19.088;2024-02-16T22:24:01;43.17;;;20.90;;
75971;SDS011;64651;47.540;19.088;2024-02-16T22:29:03;43.97;;;20.97;;
75971;SDS011;64651;47.540;19.088;2024-02-16T22:34:05;42.58;;;20.42;;
75971;SDS011;64651;47.540;19.088;2024-02-16T22:39:08;41.63;;;20.33;;
75971;SDS011;64651;47.540;19.088;2024-02-16T22:44:11;43.10;;;20.63;;
75971;SDS011;64651;47.540;19.088;2024-02-16T22:49:13;42.42;;;20.75;;
75971;SDS011;64651;47.540;19.088;2024-02-16T22:54:16;41.67;;;20.73;;
75971;SDS011;64651;47.540;19.088;2024-02-16T22:59:22;42.80;;;20.10;;
75971;SDS011;64651;47.540;19.088;2024-02-16T23:04:24;42.50;;;19.85;;
75971;SDS011;64651;47.540;19.088;2024-02-16T23:09:26;44.13;;;20.63;;
75971;SDS011;64651;47.540;19.088;2024-02-16T23:14:29;43.25;;;20.40;;
75971;SDS011;64651;47.540;19.088;2024-02-16T23:19:33;42.47;;;20.00;;
75971;SDS011;64651;47.540;19.088;2024-02-16T23:24:36;43.22;;;20.58;;
75971;SDS011;64651;47.540;19.088;2024-02-16T23:29:38;44.10;;;20.90;;
75971;SDS011;64651;47.540;19.088;2024-02-16T23:34:40;41.80;;;20.20;;
75971;SDS011;64651;47.540;19.088;2024-02-16T23:39:43;46.13;;;21.40;;
75971;SDS011;64651;47.540;19.088;2024-02-16T23:44:45;45.90;;;19.77;;
75971;SDS011;64651;47.540;19.088;2024-02-16T23:49:47;46.50;;;21.45;;
75971;SDS011;64651;47.540;19.088;2024-02-16T23:54:50;46.15;;;20.83;;
75971;SDS011;64651;47.540;19.088;2024-02-16T23:59:52;45.17;;;21.13;;
